createdAt,value
2019-01-26T00:02:02.091Z,2.30
2019-01-26T00:04:31.028Z,2.30
2019-01-26T00:07:00.265Z,2.30
2019-01-26T00:09:29.460Z,2.20
2019-01-26T00:11:58.404Z,2.10
2019-01-26T00:14:27.734Z,2.20
2019-01-26T00:16:56.773Z,2.10
2019-01-26T00:19:25.837Z,2.10
2019-01-26T00:21:54.700Z,2.10
2019-01-26T00:24:23.633Z,2.10
2019-01-26T00:26:52.646Z,2.20
2019-01-26T00:29:21.816Z,2.20
2019-01-26T00:31:51.069Z,2.10
2019-01-26T00:34:19.997Z,2.10
2019-01-26T00:36:48.951Z,2.00
2019-01-26T00:39:18.207Z,2.10
2019-01-26T00:41:47.225Z,2.10
2019-01-26T00:44:16.148Z,2.10
2019-01-26T00:46:45.016Z,2.20
2019-01-26T00:49:13.953Z,2.20
2019-01-26T00:51:42.972Z,2.20
2019-01-26T00:54:11.968Z,2.10
2019-01-26T00:56:41.461Z,2.00
2019-01-26T00:59:11.000Z,2.00
2019-01-26T01:01:40.061Z,2.00
2019-01-26T01:04:08.997Z,2.00
2019-01-26T01:06:38.019Z,1.90
2019-01-26T01:09:09.269Z,1.90
2019-01-26T01:11:38.700Z,2.00
2019-01-26T01:14:07.702Z,1.90
2019-01-26T01:16:36.708Z,1.90
2019-01-26T01:19:05.714Z,1.70
2019-01-26T01:21:34.981Z,1.70
2019-01-26T01:24:04.185Z,1.60
2019-01-26T01:26:33.203Z,1.70
2019-01-26T01:29:02.124Z,1.70
2019-01-26T01:31:31.145Z,1.70
2019-01-26T01:34:00.364Z,1.70
2019-01-26T01:36:29.238Z,1.70
2019-01-26T01:38:58.231Z,1.70
2019-01-26T01:41:27.164Z,1.80
2019-01-26T01:43:56.091Z,1.70
2019-01-26T01:46:25.094Z,1.80
2019-01-26T01:48:54.024Z,1.80
2019-01-26T01:51:23.316Z,1.80
2019-01-26T01:53:52.321Z,1.80
2019-01-26T01:56:21.338Z,2.00
2019-01-26T01:58:50.340Z,2.00
2019-01-26T02:01:19.593Z,1.90
2019-01-26T02:03:48.800Z,1.90
2019-01-26T02:06:17.826Z,1.90
2019-01-26T02:08:46.845Z,1.90
2019-01-26T02:11:15.776Z,1.90
2019-01-26T02:13:44.725Z,2.00
2019-01-26T02:16:13.742Z,1.90
2019-01-26T02:18:42.748Z,1.90
2019-01-26T02:21:11.753Z,1.90
2019-01-26T02:23:40.768Z,1.90
2019-01-26T02:26:09.769Z,1.90
2019-01-26T02:28:39.028Z,1.90
2019-01-26T02:31:08.038Z,1.90
2019-01-26T02:33:36.896Z,1.90
2019-01-26T02:36:05.896Z,2.10
2019-01-26T02:38:35.113Z,2.20
2019-01-26T02:41:04.111Z,2.10
2019-01-26T02:43:33.044Z,2.20
2019-01-26T02:46:02.048Z,2.20
2019-01-26T02:48:31.064Z,2.20
2019-01-26T02:51:00.476Z,2.20
2019-01-26T02:53:29.417Z,2.20
2019-01-26T02:55:58.342Z,2.20
2019-01-26T02:58:27.296Z,2.30
2019-01-26T03:00:56.568Z,2.20
2019-01-26T03:03:25.580Z,2.40
2019-01-26T03:05:54.516Z,2.50
2019-01-26T03:08:23.644Z,2.50
2019-01-26T03:10:52.914Z,2.60
2019-01-26T03:13:21.752Z,2.60
2019-01-26T03:15:50.768Z,2.60
2019-01-26T03:18:20.030Z,2.70
2019-01-26T03:20:49.045Z,2.80
2019-01-26T03:23:18.339Z,2.70
2019-01-26T03:25:47.281Z,2.80
2019-01-26T03:28:16.280Z,2.80
2019-01-26T03:30:45.298Z,2.80
2019-01-26T03:33:14.501Z,2.90
2019-01-26T03:35:43.817Z,2.90
2019-01-26T03:38:12.677Z,2.90
2019-01-26T03:40:41.624Z,2.90
2019-01-26T03:43:10.635Z,3.00
2019-01-26T03:45:39.560Z,3.00
2019-01-26T03:48:08.869Z,3.00
2019-01-26T03:50:37.744Z,3.10
2019-01-26T03:53:06.685Z,3.10
2019-01-26T03:55:35.616Z,3.10
2019-01-26T03:58:04.713Z,3.10
2019-01-26T04:00:33.750Z,3.20
2019-01-26T04:03:03.108Z,3.20
2019-01-26T04:05:32.148Z,3.20
2019-01-26T04:08:01.153Z,3.20
2019-01-26T04:10:30.561Z,3.30
2019-01-26T04:12:59.568Z,3.30
2019-01-26T04:15:28.585Z,3.20
2019-01-26T04:17:57.816Z,3.20
2019-01-26T04:20:26.943Z,3.20
2019-01-26T04:22:56.217Z,3.10
2019-01-26T04:25:25.232Z,3.10
2019-01-26T04:27:54.231Z,3.10
2019-01-26T04:30:23.246Z,3.10
2019-01-26T04:32:52.521Z,3.00
2019-01-26T04:35:21.825Z,3.00
2019-01-26T04:37:51.129Z,2.90
2019-01-26T04:40:20.149Z,3.00
2019-01-26T04:42:49.148Z,3.00
2019-01-26T04:45:20.346Z,3.10
2019-01-26T04:47:49.340Z,3.10
2019-01-26T04:50:18.739Z,3.20
2019-01-26T04:52:47.692Z,3.30
2019-01-26T04:55:18.877Z,3.30
2019-01-26T04:57:47.901Z,3.30
2019-01-26T05:00:24.700Z,3.40
2019-01-26T05:02:53.699Z,3.30
2019-01-26T05:05:22.726Z,3.40
2019-01-26T05:07:52.025Z,3.50
2019-01-26T05:10:21.181Z,3.50
2019-01-26T05:12:50.240Z,3.50
2019-01-26T05:15:19.260Z,3.50
2019-01-26T05:17:48.537Z,3.60
2019-01-26T05:20:22.924Z,3.70
2019-01-26T05:22:51.986Z,3.70
2019-01-26T05:25:21.138Z,3.70
2019-01-26T05:27:50.490Z,3.70
2019-01-26T05:30:27.807Z,3.70
2019-01-26T05:32:56.837Z,3.80
2019-01-26T05:35:25.878Z,3.80
2019-01-26T05:37:54.929Z,3.80
2019-01-26T05:40:23.857Z,3.80
2019-01-26T05:42:52.804Z,3.80
2019-01-26T05:45:22.897Z,3.90
2019-01-26T05:47:52.233Z,4.00
2019-01-26T05:50:23.239Z,3.90
2019-01-26T05:52:52.352Z,3.90
2019-01-26T05:55:21.356Z,4.00
2019-01-26T05:57:50.406Z,4.00
2019-01-26T06:00:26.265Z,3.90
2019-01-26T06:02:55.297Z,4.00
2019-01-26T06:05:24.918Z,4.00
2019-01-26T06:07:54.112Z,4.10
2019-01-26T06:10:23.126Z,4.00
2019-01-26T06:12:52.148Z,4.00
2019-01-26T06:15:21.145Z,4.10
2019-01-26T06:17:55.004Z,4.00
2019-01-26T06:20:20.897Z,4.00
2019-01-26T06:22:50.221Z,4.10
2019-01-26T06:25:19.504Z,4.10
2019-01-26T06:27:48.648Z,4.10
2019-01-26T06:30:20.727Z,4.10
2019-01-26T06:32:49.821Z,4.10
2019-01-26T06:35:18.828Z,4.10
2019-01-26T06:37:48.177Z,4.10
2019-01-26T06:40:18.302Z,4.20
2019-01-26T06:42:47.312Z,4.20
2019-01-26T06:45:17.889Z,4.20
2019-01-26T06:47:46.921Z,4.20
2019-01-26T06:50:20.460Z,4.20
2019-01-26T06:52:49.489Z,4.30
2019-01-26T06:55:18.506Z,4.30
2019-01-26T06:57:48.010Z,4.30
2019-01-26T07:00:23.188Z,4.30
2019-01-26T07:02:52.213Z,4.30
2019-01-26T07:05:40.584Z,4.30
2019-01-26T07:08:13.736Z,4.30
2019-01-26T07:10:42.685Z,4.40
2019-01-26T07:13:11.720Z,4.30
2019-01-26T07:15:40.961Z,4.30
2019-01-26T07:18:10.017Z,4.30
2019-01-26T07:20:39.365Z,4.30
2019-01-26T07:23:09.010Z,4.30
2019-01-26T07:25:37.972Z,4.30
2019-01-26T07:28:07.096Z,4.40
2019-01-26T07:30:36.027Z,4.50
2019-01-26T07:33:05.143Z,4.40
2019-01-26T07:35:34.448Z,4.40
2019-01-26T07:38:03.469Z,4.40
2019-01-26T07:40:32.765Z,4.40
2019-01-26T07:43:01.781Z,4.40
2019-01-26T07:45:30.904Z,4.50
2019-01-26T07:47:59.940Z,4.50
2019-01-26T07:50:28.960Z,4.50
2019-01-26T07:52:58.337Z,4.50
2019-01-26T07:55:27.353Z,4.50
2019-01-26T07:57:56.452Z,4.60
2019-01-26T08:00:26.418Z,4.60
2019-01-26T08:02:55.428Z,4.60
2019-01-26T08:05:24.756Z,4.70
2019-01-26T08:07:53.768Z,4.60
2019-01-26T08:10:23.765Z,4.70
2019-01-26T08:12:53.548Z,4.80
2019-01-26T08:15:28.177Z,4.70
2019-01-26T08:17:57.477Z,4.70
2019-01-26T08:20:26.612Z,4.70
2019-01-26T08:22:55.881Z,4.80
2019-01-26T08:25:25.621Z,4.80
2019-01-26T08:27:54.552Z,4.80
2019-01-26T08:30:23.893Z,4.80
2019-01-26T08:32:53.098Z,4.70
2019-01-26T08:35:22.108Z,4.80
2019-01-26T08:37:51.812Z,4.80
2019-01-26T08:40:21.457Z,4.80
2019-01-26T08:42:50.481Z,4.80
2019-01-26T08:45:19.501Z,4.80
2019-01-26T08:47:48.947Z,4.90
2019-01-26T08:50:20.019Z,4.90
2019-01-26T08:52:48.949Z,5.00
2019-01-26T08:55:18.634Z,5.10
2019-01-26T08:57:47.783Z,5.10
2019-01-26T09:00:21.834Z,5.10
2019-01-26T09:03:13.198Z,5.10
2019-01-26T09:06:11.516Z,5.20
2019-01-26T09:08:40.828Z,5.30
2019-01-26T09:11:09.856Z,5.30
2019-01-26T09:13:38.800Z,5.40
2019-01-26T09:16:07.884Z,5.40
2019-01-26T09:18:38.894Z,5.30
2019-01-26T09:21:07.850Z,5.30
2019-01-26T09:23:36.870Z,5.30
2019-01-26T09:26:06.064Z,5.40
2019-01-26T09:28:35.218Z,5.40
2019-01-26T09:31:04.645Z,5.50
2019-01-26T09:33:34.657Z,5.50
2019-01-26T09:36:03.690Z,5.40
2019-01-26T09:38:32.954Z,5.40
2019-01-26T09:41:02.148Z,5.40
2019-01-26T09:43:31.350Z,5.50
2019-01-26T09:46:00.464Z,5.50
2019-01-26T09:48:29.490Z,5.40
2019-01-26T09:50:58.500Z,5.40
2019-01-26T09:53:27.522Z,5.40
2019-01-26T09:55:56.642Z,5.40
2019-01-26T09:58:25.934Z,5.50
2019-01-26T10:00:55.396Z,5.50
2019-01-26T10:03:24.405Z,5.60
2019-01-26T10:05:53.820Z,5.60
2019-01-26T10:08:22.781Z,5.50
2019-01-26T10:10:51.980Z,5.50
2019-01-26T10:13:20.963Z,5.50
2019-01-26T10:15:49.988Z,5.50
2019-01-26T10:18:19.177Z,5.60
2019-01-26T10:20:48.365Z,5.60
2019-01-26T10:23:17.522Z,5.70
2019-01-26T10:25:48.719Z,5.80
2019-01-26T10:28:17.972Z,5.90
2019-01-26T10:30:50.401Z,5.90
2019-01-26T10:33:19.403Z,5.90
2019-01-26T10:36:16.671Z,5.90
2019-01-26T10:38:50.428Z,5.80
2019-01-26T10:41:31.653Z,6.00
2019-01-26T10:44:00.629Z,5.90
2019-01-26T10:46:30.080Z,5.90
2019-01-26T10:49:00.898Z,6.00
2019-01-26T10:51:29.881Z,6.10
2019-01-26T10:53:58.828Z,6.10
2019-01-26T10:56:27.970Z,6.10
2019-01-26T10:58:57.472Z,6.20
2019-01-26T11:01:26.882Z,6.30
2019-01-26T11:03:55.897Z,6.30
2019-01-26T11:06:25.017Z,6.20
2019-01-26T11:08:54.465Z,6.20
2019-01-26T11:11:23.981Z,6.20
2019-01-26T11:13:53.480Z,6.10
2019-01-26T11:16:22.785Z,6.20
2019-01-26T11:18:51.809Z,6.10
2019-01-26T11:21:42.848Z,6.20
2019-01-26T11:24:12.533Z,6.30
2019-01-26T11:27:07.731Z,6.30
2019-01-26T11:30:16.866Z,6.30
2019-01-26T11:32:45.976Z,6.20
2019-01-26T11:35:14.998Z,6.30
2019-01-26T11:37:44.168Z,6.30
2019-01-26T11:40:18.893Z,6.20
2019-01-26T11:42:47.911Z,6.10
2019-01-26T11:45:43.449Z,6.10
2019-01-26T11:48:22.200Z,6.10
2019-01-26T11:50:55.800Z,6.00
2019-01-26T11:53:25.156Z,6.00
2019-01-26T11:55:59.436Z,6.10
2019-01-26T11:58:29.117Z,6.00
2019-01-26T12:01:09.610Z,6.00
2019-01-26T12:03:56.792Z,6.10
2019-01-26T12:06:33.160Z,6.10
2019-01-26T12:09:02.677Z,6.30
2019-01-26T12:11:32.212Z,6.40
2019-01-26T12:14:01.700Z,6.60
2019-01-26T12:16:31.393Z,6.50
2019-01-26T12:19:00.882Z,6.60
2019-01-26T12:21:30.413Z,6.50
2019-01-26T12:24:00.525Z,6.50
2019-01-26T12:26:29.978Z,6.50
2019-01-26T12:28:59.784Z,6.50
2019-01-26T12:31:29.458Z,6.60
2019-01-26T12:34:00.793Z,6.70
2019-01-26T12:36:30.825Z,6.60
2019-01-26T12:39:01.041Z,6.60
2019-01-26T12:41:30.853Z,6.70
2019-01-26T12:44:01.328Z,6.80
2019-01-26T12:46:30.929Z,6.70
2019-01-26T12:49:00.810Z,6.70
2019-01-26T12:51:30.925Z,6.70
2019-01-26T12:54:00.864Z,6.60
2019-01-26T12:56:30.787Z,6.50
2019-01-26T12:59:00.330Z,6.60
2019-01-26T13:01:30.426Z,6.60
2019-01-26T13:04:00.700Z,6.60
2019-01-26T13:06:31.520Z,6.60
2019-01-26T13:09:01.401Z,6.80
2019-01-26T13:11:32.085Z,6.90
2019-01-26T13:14:02.612Z,6.90
2019-01-26T13:16:32.520Z,6.80
2019-01-26T13:19:02.603Z,6.80
2019-01-26T13:21:32.031Z,6.70
2019-01-26T13:24:01.910Z,6.70
2019-01-26T13:26:31.617Z,6.80
2019-01-26T13:29:01.300Z,6.70
2019-01-26T13:31:31.345Z,6.70
2019-01-26T13:34:02.509Z,6.80
2019-01-26T13:36:32.678Z,6.80
2019-01-26T13:39:02.356Z,6.60
2019-01-26T13:41:33.097Z,6.50
2019-01-26T13:44:02.572Z,6.60
2019-01-26T13:46:32.433Z,6.50
2019-01-26T13:49:02.661Z,6.50
2019-01-26T13:51:32.587Z,6.50
2019-01-26T13:54:03.388Z,6.60
2019-01-26T13:56:33.016Z,6.60
2019-01-26T13:59:02.828Z,6.60
2019-01-26T14:01:32.324Z,6.50
2019-01-26T14:04:01.737Z,6.60
2019-01-26T14:06:31.448Z,6.50
2019-01-26T14:09:01.476Z,6.50
2019-01-26T14:11:31.237Z,6.50
2019-01-26T14:14:01.213Z,6.50
2019-01-26T14:16:30.857Z,6.40
2019-01-26T14:19:01.010Z,6.40
2019-01-26T14:21:30.973Z,6.40
2019-01-26T14:24:01.572Z,6.40
2019-01-26T14:26:32.195Z,6.40
2019-01-26T14:29:02.610Z,6.40
2019-01-26T14:31:32.956Z,6.30
2019-01-26T14:34:03.668Z,6.30
2019-01-26T14:36:34.515Z,6.30
2019-01-26T14:39:06.181Z,6.40
2019-01-26T14:41:36.031Z,6.40
2019-01-26T14:44:06.041Z,6.40
2019-01-26T14:46:36.384Z,6.30
2019-01-26T14:49:06.800Z,6.40
2019-01-26T14:51:36.716Z,6.30
2019-01-26T14:54:07.700Z,6.40
2019-01-26T14:56:38.101Z,6.50
2019-01-26T14:59:08.982Z,6.40
2019-01-26T15:01:39.109Z,6.30
2019-01-26T15:04:08.680Z,6.40
2019-01-26T15:06:38.550Z,6.30
2019-01-26T15:09:10.176Z,6.30
2019-01-26T15:11:40.673Z,6.30
2019-01-26T15:14:11.952Z,6.30
2019-01-26T15:16:42.004Z,6.20
2019-01-26T15:19:12.620Z,6.20
2019-01-26T15:21:42.944Z,6.20
2019-01-26T15:24:12.989Z,6.20
2019-01-26T15:26:42.461Z,6.10
2019-01-26T15:29:12.284Z,6.20
2019-01-26T15:31:42.322Z,6.10
2019-01-26T15:34:13.096Z,5.90
2019-01-26T15:36:43.064Z,5.90
2019-01-26T15:39:13.054Z,5.90
2019-01-26T15:41:43.069Z,5.90
2019-01-26T15:44:12.793Z,5.90
2019-01-26T15:46:42.593Z,5.90
2019-01-26T15:49:12.792Z,5.90
2019-01-26T15:51:42.316Z,6.00
2019-01-26T15:54:12.435Z,5.90
2019-01-26T15:56:42.348Z,5.90
2019-01-26T15:59:11.721Z,6.00
2019-01-26T16:01:41.874Z,5.90
2019-01-26T16:04:11.356Z,5.80
2019-01-26T16:06:41.292Z,5.90
2019-01-26T16:09:11.528Z,5.80
2019-01-26T16:11:41.772Z,5.80
2019-01-26T16:14:11.967Z,5.70
2019-01-26T16:16:41.700Z,5.70
2019-01-26T16:19:11.139Z,5.70
2019-01-26T16:21:41.084Z,5.60
2019-01-26T16:24:10.684Z,5.60
2019-01-26T16:26:40.316Z,5.50
2019-01-26T16:29:10.733Z,5.60
2019-01-26T16:31:41.397Z,5.60
2019-01-26T16:34:11.449Z,5.60
2019-01-26T16:36:41.392Z,5.60
2019-01-26T16:39:12.061Z,5.60
2019-01-26T16:41:42.639Z,5.50
2019-01-26T16:44:13.517Z,5.50
2019-01-26T16:46:44.424Z,5.60
2019-01-26T16:49:14.944Z,5.60
2019-01-26T16:51:45.988Z,5.60
2019-01-26T16:54:16.308Z,5.60
2019-01-26T16:56:46.441Z,5.50
2019-01-26T16:59:16.601Z,5.50
2019-01-26T17:01:46.778Z,5.50
2019-01-26T17:04:16.849Z,5.60
2019-01-26T17:06:47.969Z,5.60
2019-01-26T17:09:17.958Z,5.60
2019-01-26T17:11:48.064Z,5.60
2019-01-26T17:14:18.344Z,5.70
2019-01-26T17:16:48.323Z,5.70
2019-01-26T17:19:18.043Z,5.70
2019-01-26T17:21:48.425Z,5.70
2019-01-26T17:24:17.902Z,5.70
2019-01-26T17:26:52.703Z,5.80
2019-01-26T17:29:18.585Z,5.70
2019-01-26T17:31:48.460Z,5.80
2019-01-26T17:34:18.321Z,5.90
2019-01-26T17:36:47.833Z,5.90
2019-01-26T17:39:17.212Z,6.00
2019-01-26T17:41:46.600Z,6.10
2019-01-26T17:44:15.913Z,6.20
2019-01-26T17:46:45.167Z,6.00
2019-01-26T17:49:14.409Z,6.00
2019-01-26T17:51:43.532Z,6.10
2019-01-26T17:54:12.938Z,6.10
2019-01-26T17:56:42.779Z,6.10
2019-01-26T17:59:12.393Z,6.10
2019-01-26T18:01:42.193Z,6.10
2019-01-26T18:04:11.922Z,6.10
2019-01-26T18:06:41.944Z,6.10
2019-01-26T18:09:12.535Z,6.20
2019-01-26T18:11:42.130Z,6.30
2019-01-26T18:14:12.573Z,6.20
2019-01-26T18:16:42.400Z,6.20
2019-01-26T18:19:12.034Z,6.40
2019-01-26T18:21:41.847Z,6.40
2019-01-26T18:24:12.239Z,6.30
2019-01-26T18:26:42.176Z,6.40
2019-01-26T18:29:12.118Z,6.50
2019-01-26T18:31:42.881Z,6.40
2019-01-26T18:34:13.640Z,6.40
2019-01-26T18:36:44.452Z,6.40
2019-01-26T18:39:15.406Z,6.30
2019-01-26T18:41:46.530Z,6.30
2019-01-26T18:44:17.691Z,6.30
2019-01-26T18:46:48.206Z,6.30
2019-01-26T18:49:18.761Z,6.30
2019-01-26T18:51:49.348Z,6.30
2019-01-26T18:54:20.230Z,6.30
2019-01-26T18:56:50.945Z,6.40
2019-01-26T18:59:22.400Z,6.40
2019-01-26T19:01:53.539Z,6.30
2019-01-26T19:04:28.624Z,6.50
2019-01-26T19:06:59.510Z,6.60
2019-01-26T19:09:30.584Z,6.50
2019-01-26T19:12:01.640Z,6.50
2019-01-26T19:14:32.691Z,6.60
2019-01-26T19:17:03.720Z,6.50
2019-01-26T19:19:35.344Z,6.40
2019-01-26T19:22:06.080Z,6.30
2019-01-26T19:24:37.591Z,6.40
2019-01-26T19:27:08.870Z,6.50
2019-01-26T19:29:39.092Z,6.40
2019-01-26T19:32:09.860Z,6.50
2019-01-26T19:34:40.798Z,6.60
2019-01-26T19:37:11.802Z,6.60
2019-01-26T19:39:43.221Z,6.70
2019-01-26T19:42:14.210Z,6.70
2019-01-26T19:44:45.766Z,6.60
2019-01-26T19:47:17.750Z,6.50
2019-01-26T19:49:49.804Z,6.60
2019-01-26T19:52:21.635Z,6.60
2019-01-26T19:54:53.108Z,6.50
2019-01-26T19:57:24.537Z,6.50
2019-01-26T19:59:56.201Z,6.50
2019-01-26T20:02:28.014Z,6.50
2019-01-26T20:04:59.342Z,6.50
2019-01-26T20:07:30.344Z,6.50
2019-01-26T20:10:01.582Z,6.50
2019-01-26T20:12:32.982Z,6.40
2019-01-26T20:15:04.693Z,6.30
2019-01-26T20:17:36.032Z,6.20
2019-01-26T20:20:08.848Z,6.30
2019-01-26T20:22:40.518Z,6.30
2019-01-26T20:25:12.407Z,6.40
2019-01-26T20:27:43.578Z,6.30
2019-01-26T20:30:18.163Z,6.40
2019-01-26T20:32:49.623Z,6.30
2019-01-26T20:35:21.339Z,6.30
2019-01-26T20:37:53.187Z,6.40
2019-01-26T20:40:24.681Z,6.30
2019-01-26T20:42:56.102Z,6.40
2019-01-26T20:45:29.032Z,6.40
2019-01-26T20:48:01.933Z,6.40
2019-01-26T20:50:33.021Z,6.50
2019-01-26T20:53:04.853Z,6.50
2019-01-26T20:55:37.391Z,6.60
2019-01-26T20:58:08.673Z,6.50
2019-01-26T21:00:40.340Z,6.50
2019-01-26T21:03:11.288Z,6.60
2019-01-26T21:05:42.432Z,6.70
2019-01-26T21:08:13.801Z,6.70
2019-01-26T21:10:44.705Z,6.80
2019-01-26T21:13:16.438Z,6.80
2019-01-26T21:15:47.808Z,6.80
2019-01-26T21:18:18.960Z,6.70
2019-01-26T21:20:50.241Z,6.70
2019-01-26T21:23:20.846Z,6.80
2019-01-26T21:25:51.997Z,6.80
2019-01-26T21:28:23.177Z,6.80
2019-01-26T21:30:54.052Z,6.80
2019-01-26T21:33:24.999Z,6.80
2019-01-26T21:35:56.140Z,6.80
2019-01-26T21:38:27.097Z,6.70
2019-01-26T21:40:57.712Z,6.80
2019-01-26T21:43:28.819Z,6.80
2019-01-26T21:45:59.591Z,6.80
2019-01-26T21:48:30.456Z,6.70
2019-01-26T21:51:01.261Z,6.70
2019-01-26T21:53:31.916Z,6.70
2019-01-26T21:56:02.532Z,6.70
2019-01-26T21:58:33.305Z,6.80
2019-01-26T22:01:03.912Z,6.90
2019-01-26T22:03:34.545Z,7.00
2019-01-26T22:06:05.382Z,7.00
2019-01-26T22:08:35.809Z,7.10
2019-01-26T22:11:05.860Z,7.10
2019-01-26T22:13:35.771Z,7.10
2019-01-26T22:16:06.273Z,6.90
2019-01-26T22:18:36.290Z,6.90
2019-01-26T22:21:06.408Z,6.90
2019-01-26T22:23:36.322Z,7.00
2019-01-26T22:26:06.272Z,6.90
2019-01-26T22:28:35.855Z,6.90
2019-01-26T22:31:05.786Z,6.90
2019-01-26T22:33:35.472Z,6.80
2019-01-26T22:36:05.264Z,6.90
2019-01-26T22:38:35.196Z,6.90
2019-01-26T22:41:04.455Z,7.00
2019-01-26T22:43:33.913Z,7.10
2019-01-26T22:46:03.418Z,7.10
2019-01-26T22:48:33.023Z,7.10
2019-01-26T22:51:02.624Z,7.20
2019-01-26T22:53:32.242Z,7.10
2019-01-26T22:56:01.436Z,7.10
2019-01-26T22:58:30.460Z,7.10
2019-01-26T23:01:08.281Z,7.00
2019-01-26T23:04:05.924Z,7.00
2019-01-26T23:06:59.959Z,6.90
2019-01-26T23:09:34.841Z,7.00
2019-01-26T23:12:29.376Z,7.00
2019-01-26T23:15:35.778Z,7.10
2019-01-26T23:18:28.200Z,7.00
2019-01-26T23:21:18.323Z,7.00
2019-01-26T23:24:28.948Z,7.00
2019-01-26T23:27:34.893Z,7.00
2019-01-26T23:30:28.359Z,6.90
2019-01-26T23:32:57.289Z,7.00
2019-01-26T23:35:26.306Z,7.00
2019-01-26T23:37:55.314Z,7.00
2019-01-26T23:40:24.327Z,7.00
2019-01-26T23:42:53.645Z,7.10
2019-01-26T23:45:22.656Z,7.00
2019-01-26T23:47:51.582Z,6.90
2019-01-26T23:50:20.597Z,6.90
2019-01-26T23:52:49.860Z,6.90
2019-01-26T23:55:19.161Z,6.80
2019-01-26T23:57:48.175Z,6.80
